createdAt,value
2019-01-25T00:02:04.176Z,90.13
2019-01-25T00:04:33.564Z,82.97
2019-01-25T00:07:03.105Z,94.67
2019-01-25T00:09:32.681Z,89.80
2019-01-25T00:12:02.271Z,105.43
2019-01-25T00:14:31.689Z,104.13
2019-01-25T00:17:01.293Z,101.07
2019-01-25T00:19:30.744Z,98.63
2019-01-25T00:22:00.333Z,103.00
2019-01-25T00:24:29.685Z,93.47
2019-01-25T00:26:59.088Z,105.17
2019-01-25T00:29:28.454Z,88.70
2019-01-25T00:31:57.850Z,104.33
2019-01-25T00:34:27.258Z,103.90
2019-01-25T00:36:56.660Z,99.37
2019-01-25T00:39:26.076Z,110.37
2019-01-25T00:41:55.385Z,104.37
2019-01-25T00:44:24.740Z,91.97
2019-01-25T00:46:54.153Z,83.90
2019-01-25T00:49:23.630Z,100.53
2019-01-25T00:51:53.013Z,114.13
2019-01-25T00:54:22.351Z,97.43
2019-01-25T00:56:51.788Z,95.00
2019-01-25T00:59:21.206Z,99.17
2019-01-25T01:01:50.783Z,94.47
2019-01-25T01:04:20.203Z,93.67
2019-01-25T01:06:49.747Z,102.53
2019-01-25T01:09:19.004Z,100.20
2019-01-25T01:11:48.423Z,94.10
2019-01-25T01:14:17.812Z,100.70
2019-01-25T01:16:47.196Z,99.60
2019-01-25T01:19:16.606Z,111.90
2019-01-25T01:21:46.124Z,94.40
2019-01-25T01:24:15.807Z,102.20
2019-01-25T01:26:45.299Z,92.50
2019-01-25T01:29:14.965Z,86.33
2019-01-25T01:31:44.358Z,90.17
2019-01-25T01:34:13.774Z,106.23
2019-01-25T01:36:43.118Z,95.80
2019-01-25T01:39:12.517Z,93.87
2019-01-25T01:41:41.874Z,91.00
2019-01-25T01:44:11.259Z,112.77
2019-01-25T01:46:40.645Z,96.17
2019-01-25T01:49:10.225Z,92.03
2019-01-25T01:51:39.672Z,92.43
2019-01-25T01:54:09.232Z,88.30
2019-01-25T01:56:38.722Z,100.07
2019-01-25T01:59:08.166Z,99.30
2019-01-25T02:01:37.531Z,99.83
2019-01-25T02:04:07.312Z,93.00
2019-01-25T02:06:36.681Z,94.80
2019-01-25T02:09:08.658Z,104.33
2019-01-25T02:11:38.072Z,94.30
2019-01-25T02:14:07.735Z,90.23
2019-01-25T02:16:37.169Z,86.93
2019-01-25T02:19:06.578Z,92.47
2019-01-25T02:21:35.874Z,104.03
2019-01-25T02:24:05.470Z,107.30
2019-01-25T02:26:34.800Z,89.13
2019-01-25T02:29:04.321Z,90.60
2019-01-25T02:31:33.710Z,85.43
2019-01-25T02:34:03.074Z,93.70
2019-01-25T02:36:32.361Z,73.87
2019-01-25T02:39:01.721Z,101.63
2019-01-25T02:41:31.122Z,106.13
2019-01-25T02:44:00.676Z,96.63
2019-01-25T02:46:30.166Z,114.87
2019-01-25T02:48:59.562Z,89.50
2019-01-25T02:51:29.025Z,107.93
2019-01-25T02:54:01.344Z,92.00
2019-01-25T02:56:30.722Z,98.73
2019-01-25T02:58:59.998Z,96.40
2019-01-25T03:01:29.406Z,106.47
2019-01-25T03:03:58.792Z,106.20
2019-01-25T03:06:28.281Z,96.60
2019-01-25T03:08:57.671Z,102.70
2019-01-25T03:11:27.046Z,93.13
2019-01-25T03:13:56.639Z,86.90
2019-01-25T03:16:26.300Z,97.03
2019-01-25T03:18:55.742Z,105.23
2019-01-25T03:21:25.151Z,96.10
2019-01-25T03:23:54.774Z,115.57
2019-01-25T03:26:24.133Z,98.63
2019-01-25T03:28:53.557Z,102.57
2019-01-25T03:31:22.948Z,84.60
2019-01-25T03:33:52.291Z,94.13
2019-01-25T03:36:21.664Z,115.53
2019-01-25T03:38:51.139Z,88.30
2019-01-25T03:41:20.774Z,94.70
2019-01-25T03:43:50.161Z,91.93
2019-01-25T03:46:19.606Z,77.63
2019-01-25T03:48:48.968Z,102.90
2019-01-25T03:51:18.367Z,95.00
2019-01-25T03:53:47.745Z,112.87
2019-01-25T03:56:36.054Z,94.33
2019-01-25T03:59:05.675Z,97.73
2019-01-25T04:01:35.027Z,89.50
2019-01-25T04:04:04.907Z,90.60
2019-01-25T04:06:34.274Z,84.53
2019-01-25T04:09:06.089Z,83.77
2019-01-25T04:11:35.428Z,97.03
2019-01-25T04:14:04.884Z,80.53
2019-01-25T04:16:34.362Z,76.27
2019-01-25T04:19:03.798Z,92.67
2019-01-25T04:21:33.148Z,85.23
2019-01-25T04:24:02.465Z,93.43
2019-01-25T04:26:31.867Z,87.03
2019-01-25T04:29:01.314Z,82.90
2019-01-25T04:31:31.039Z,96.70
2019-01-25T04:34:00.500Z,78.40
2019-01-25T04:36:29.965Z,88.27
2019-01-25T04:38:59.322Z,76.10
2019-01-25T04:41:28.685Z,88.17
2019-01-25T04:43:58.054Z,78.17
2019-01-25T04:46:27.417Z,78.97
2019-01-25T04:48:56.784Z,78.77
2019-01-25T04:51:26.282Z,91.50
2019-01-25T04:53:55.777Z,85.27
2019-01-25T04:56:25.098Z,71.53
2019-01-25T04:58:54.513Z,69.03
2019-01-25T05:01:23.910Z,76.63
2019-01-25T05:03:53.476Z,70.23
2019-01-25T05:06:22.862Z,76.27
2019-01-25T05:08:52.153Z,69.30
2019-01-25T05:11:21.525Z,75.67
2019-01-25T05:13:50.948Z,86.37
2019-01-25T05:16:20.363Z,87.90
2019-01-25T05:18:49.784Z,72.10
2019-01-25T05:21:24.674Z,69.07
2019-01-25T05:23:54.231Z,68.50
2019-01-25T05:26:23.951Z,87.73
2019-01-25T05:28:53.334Z,75.63
2019-01-25T05:31:26.164Z,72.40
2019-01-25T05:33:56.986Z,86.73
2019-01-25T05:36:26.410Z,76.40
2019-01-25T05:38:55.815Z,75.27
2019-01-25T05:41:28.599Z,68.67
2019-01-25T05:43:56.320Z,75.93
2019-01-25T05:46:25.836Z,76.33
2019-01-25T05:48:55.233Z,91.20
2019-01-25T05:51:24.581Z,73.97
2019-01-25T05:53:54.377Z,87.73
2019-01-25T05:56:24.424Z,84.40
2019-01-25T05:58:53.928Z,91.07
2019-01-25T06:01:23.425Z,79.90
2019-01-25T06:03:53.028Z,77.20
2019-01-25T06:06:22.429Z,81.93
2019-01-25T06:08:51.883Z,66.60
2019-01-25T06:11:21.249Z,74.83
2019-01-25T06:13:50.685Z,77.40
2019-01-25T06:16:20.176Z,119.67
2019-01-25T06:18:49.568Z,77.67
2019-01-25T06:21:18.944Z,91.57
2019-01-25T06:23:49.968Z,101.17
2019-01-25T06:26:19.378Z,75.83
2019-01-25T06:28:52.124Z,87.40
2019-01-25T06:31:21.645Z,84.03
2019-01-25T06:33:51.049Z,96.47
2019-01-25T06:36:23.454Z,85.80
2019-01-25T06:38:52.838Z,97.87
2019-01-25T06:41:25.050Z,74.63
2019-01-25T06:43:54.500Z,82.03
2019-01-25T06:46:23.894Z,80.37
2019-01-25T06:48:54.778Z,66.23
2019-01-25T06:51:24.212Z,81.27
2019-01-25T06:53:53.773Z,99.03
2019-01-25T06:56:23.267Z,77.53
2019-01-25T06:59:04.459Z,87.70
2019-01-25T07:01:51.517Z,75.37
2019-01-25T07:04:21.158Z,74.53
2019-01-25T07:06:50.599Z,75.87
2019-01-25T07:09:20.096Z,82.90
2019-01-25T07:11:51.722Z,93.63
2019-01-25T07:14:20.849Z,74.10
2019-01-25T07:16:50.239Z,84.40
2019-01-25T07:19:19.783Z,85.70
2019-01-25T07:21:49.203Z,89.83
2019-01-25T07:24:18.621Z,77.70
2019-01-25T07:26:48.079Z,75.43
2019-01-25T07:29:17.643Z,68.90
2019-01-25T07:31:47.227Z,77.77
2019-01-25T07:34:16.753Z,77.50
2019-01-25T07:36:46.232Z,92.93
2019-01-25T07:39:24.268Z,67.90
2019-01-25T07:41:59.224Z,67.60
2019-01-25T07:44:25.241Z,69.43
2019-01-25T07:46:54.823Z,70.37
2019-01-25T07:49:24.350Z,82.77
2019-01-25T07:51:53.874Z,78.70
2019-01-25T07:54:23.316Z,79.37
2019-01-25T07:56:59.568Z,87.03
2019-01-25T07:59:28.968Z,93.53
2019-01-25T08:01:58.401Z,68.17
2019-01-25T08:04:27.881Z,91.67
2019-01-25T08:06:57.323Z,65.03
2019-01-25T08:09:26.801Z,101.10
2019-01-25T08:11:56.511Z,75.97
2019-01-25T08:14:25.915Z,78.33
2019-01-25T08:16:55.493Z,79.40
2019-01-25T08:19:25.045Z,64.57
2019-01-25T08:21:54.832Z,79.63
2019-01-25T08:24:24.334Z,71.87
2019-01-25T08:26:53.812Z,73.13
2019-01-25T08:29:27.987Z,68.93
2019-01-25T08:31:54.400Z,78.57
2019-01-25T08:34:23.870Z,72.67
2019-01-25T08:36:53.461Z,77.90
2019-01-25T08:39:22.935Z,79.17
2019-01-25T08:41:52.878Z,89.37
2019-01-25T08:44:22.518Z,81.63
2019-01-25T08:46:52.076Z,91.27
2019-01-25T08:49:21.620Z,81.43
2019-01-25T08:51:51.082Z,89.77
2019-01-25T08:54:20.591Z,76.63
2019-01-25T08:56:50.141Z,87.77
2019-01-25T08:59:19.779Z,85.57
2019-01-25T09:01:49.207Z,86.50
2019-01-25T09:04:18.874Z,91.93
2019-01-25T09:06:48.386Z,86.40
2019-01-25T09:09:17.846Z,92.03
2019-01-25T09:11:47.351Z,87.83
2019-01-25T09:14:16.733Z,81.13
2019-01-25T09:16:46.180Z,80.43
2019-01-25T09:19:15.519Z,84.87
2019-01-25T09:21:44.820Z,102.80
2019-01-25T09:24:14.281Z,109.13
2019-01-25T09:26:43.745Z,86.33
2019-01-25T09:29:13.185Z,76.63
2019-01-25T09:31:42.625Z,72.67
2019-01-25T09:34:12.015Z,77.90
2019-01-25T09:36:41.369Z,65.60
2019-01-25T09:39:11.097Z,83.57
2019-01-25T09:41:40.505Z,72.90
2019-01-25T09:44:12.942Z,77.60
2019-01-25T09:46:42.492Z,68.70
2019-01-25T09:49:12.082Z,70.77
2019-01-25T09:51:41.519Z,72.27
2019-01-25T09:54:10.990Z,86.40
2019-01-25T09:56:40.353Z,71.83
2019-01-25T09:59:09.854Z,58.60
2019-01-25T10:01:39.429Z,62.77
2019-01-25T10:04:08.922Z,56.83
2019-01-25T10:06:38.261Z,69.07
2019-01-25T10:09:09.818Z,65.00
2019-01-25T10:11:39.240Z,57.03
2019-01-25T10:14:08.922Z,53.03
2019-01-25T10:16:38.469Z,58.93
2019-01-25T10:19:08.053Z,70.40
2019-01-25T10:21:37.579Z,53.40
2019-01-25T10:24:07.055Z,72.83
2019-01-25T10:26:36.460Z,66.37
2019-01-25T10:29:06.142Z,56.80
2019-01-25T10:31:35.604Z,51.40
2019-01-25T10:34:05.068Z,53.03
2019-01-25T10:36:34.435Z,55.83
2019-01-25T10:39:05.675Z,53.00
2019-01-25T10:41:35.264Z,47.90
2019-01-25T10:44:05.686Z,65.10
2019-01-25T10:46:35.115Z,51.73
2019-01-25T10:49:04.797Z,47.73
2019-01-25T10:51:34.311Z,54.23
2019-01-25T10:54:03.686Z,55.40
2019-01-25T10:56:33.212Z,48.20
2019-01-25T10:59:02.642Z,59.20
2019-01-25T11:01:32.108Z,50.13
2019-01-25T11:04:01.604Z,52.20
2019-01-25T11:06:31.032Z,49.87
2019-01-25T11:09:00.622Z,53.33
2019-01-25T11:11:30.061Z,45.13
2019-01-25T11:13:59.354Z,51.20
2019-01-25T11:16:28.781Z,54.67
2019-01-25T11:18:58.184Z,41.03
2019-01-25T11:21:27.562Z,52.43
2019-01-25T11:23:57.094Z,46.03
2019-01-25T11:26:26.524Z,54.30
2019-01-25T11:28:55.989Z,58.93
2019-01-25T11:31:25.597Z,67.23
2019-01-25T11:33:55.238Z,75.57
2019-01-25T11:36:24.876Z,59.07
2019-01-25T11:38:54.381Z,58.70
2019-01-25T11:41:23.779Z,54.60
2019-01-25T11:43:53.226Z,61.53
2019-01-25T11:46:22.787Z,61.33
2019-01-25T11:48:52.679Z,56.83
2019-01-25T11:51:22.135Z,66.97
2019-01-25T11:53:51.518Z,57.63
2019-01-25T11:56:21.104Z,63.20
2019-01-25T11:58:50.519Z,62.63
2019-01-25T12:01:20.127Z,50.47
2019-01-25T12:03:49.639Z,66.27
2019-01-25T12:06:19.311Z,51.27
2019-01-25T12:08:48.717Z,61.43
2019-01-25T12:11:18.195Z,50.13
2019-01-25T12:13:47.697Z,48.83
2019-01-25T12:16:17.135Z,46.67
2019-01-25T12:18:47.639Z,56.10
2019-01-25T12:21:17.207Z,48.63
2019-01-25T12:23:46.999Z,70.30
2019-01-25T12:26:16.470Z,53.80
2019-01-25T12:28:45.936Z,49.23
2019-01-25T12:31:15.432Z,56.20
2019-01-25T12:33:44.856Z,60.23
2019-01-25T12:36:14.594Z,57.73
2019-01-25T12:38:44.106Z,65.67
2019-01-25T12:41:13.570Z,64.97
2019-01-25T12:43:43.074Z,57.67
2019-01-25T12:46:12.871Z,55.27
2019-01-25T12:48:42.295Z,62.90
2019-01-25T12:51:34.908Z,66.00
2019-01-25T12:54:04.939Z,65.10
2019-01-25T12:56:34.531Z,61.67
2019-01-25T12:59:03.947Z,63.30
2019-01-25T13:01:35.093Z,60.27
2019-01-25T13:04:04.613Z,73.27
2019-01-25T13:06:34.347Z,71.77
2019-01-25T13:09:05.637Z,71.60
2019-01-25T13:11:35.235Z,81.87
2019-01-25T13:14:04.882Z,80.20
2019-01-25T13:16:34.661Z,68.17
2019-01-25T13:19:04.734Z,81.73
2019-01-25T13:21:34.559Z,76.90
2019-01-25T13:24:04.214Z,89.00
2019-01-25T13:26:33.895Z,89.37
2019-01-25T13:29:03.618Z,90.27
2019-01-25T13:31:33.679Z,79.93
2019-01-25T13:34:03.177Z,92.13
2019-01-25T13:36:32.659Z,88.13
2019-01-25T13:39:02.378Z,92.17
2019-01-25T13:41:31.882Z,86.27
2019-01-25T13:44:01.362Z,82.30
2019-01-25T13:46:31.097Z,85.07
2019-01-25T13:49:00.630Z,89.17
2019-01-25T13:51:30.105Z,88.80
2019-01-25T13:53:59.615Z,102.00
2019-01-25T13:56:29.120Z,94.93
2019-01-25T13:58:58.528Z,97.70
2019-01-25T14:01:34.479Z,92.77
2019-01-25T14:03:59.131Z,102.20
2019-01-25T14:06:28.645Z,100.13
2019-01-25T14:08:58.153Z,86.27
2019-01-25T14:11:27.686Z,102.73
2019-01-25T14:13:57.184Z,81.30
2019-01-25T14:16:26.698Z,81.77
2019-01-25T14:18:56.228Z,86.83
2019-01-25T14:21:26.182Z,90.57
2019-01-25T14:23:55.683Z,83.70
2019-01-25T14:26:25.123Z,80.80
2019-01-25T14:28:54.697Z,84.93
2019-01-25T14:31:24.406Z,80.33
2019-01-25T14:33:54.239Z,93.80
2019-01-25T14:36:23.740Z,88.30
2019-01-25T14:38:53.245Z,87.00
2019-01-25T14:41:22.755Z,75.53
2019-01-25T14:43:54.703Z,79.60
2019-01-25T14:46:23.710Z,75.47
2019-01-25T14:48:53.358Z,84.93
2019-01-25T14:51:22.962Z,65.50
2019-01-25T14:53:52.434Z,77.30
2019-01-25T14:56:22.124Z,68.53
2019-01-25T14:58:51.620Z,89.30
2019-01-25T15:01:21.335Z,76.77
2019-01-25T15:03:50.920Z,66.67
2019-01-25T15:06:20.464Z,74.23
2019-01-25T15:08:50.189Z,67.50
2019-01-25T15:11:19.733Z,61.83
2019-01-25T15:13:49.887Z,66.80
2019-01-25T15:16:19.739Z,62.67
2019-01-25T15:18:49.228Z,71.63
2019-01-25T15:21:18.733Z,68.37
2019-01-25T15:23:48.337Z,65.40
2019-01-25T15:26:19.046Z,63.13
2019-01-25T15:28:48.790Z,75.67
2019-01-25T15:31:18.282Z,71.43
2019-01-25T15:33:48.148Z,68.40
2019-01-25T15:36:17.749Z,70.27
2019-01-25T15:38:47.327Z,75.23
2019-01-25T15:41:16.809Z,73.40
2019-01-25T15:43:46.386Z,72.20
2019-01-25T15:46:15.973Z,73.70
2019-01-25T15:48:45.621Z,67.17
2019-01-25T15:51:15.107Z,63.30
2019-01-25T15:53:44.855Z,61.00
2019-01-25T15:56:14.480Z,74.40
2019-01-25T15:58:44.274Z,66.83
2019-01-25T16:01:13.766Z,64.07
2019-01-25T16:03:43.443Z,71.60
2019-01-25T16:06:13.426Z,68.30
2019-01-25T16:08:42.979Z,67.97
2019-01-25T16:11:12.546Z,70.67
2019-01-25T16:13:42.347Z,70.47
2019-01-25T16:16:12.098Z,71.07
2019-01-25T16:18:42.326Z,63.60
2019-01-25T16:21:11.910Z,68.63
2019-01-25T16:23:41.633Z,72.53
2019-01-25T16:26:11.339Z,72.33
2019-01-25T16:28:40.962Z,66.30
2019-01-25T16:31:10.680Z,73.60
2019-01-25T16:33:40.255Z,79.03
2019-01-25T16:36:09.977Z,68.40
2019-01-25T16:38:39.522Z,61.17
2019-01-25T16:41:09.170Z,77.57
2019-01-25T16:43:38.823Z,83.77
2019-01-25T16:46:08.369Z,65.37
2019-01-25T16:48:38.080Z,79.27
2019-01-25T16:51:07.966Z,85.30
2019-01-25T16:53:37.732Z,72.47
2019-01-25T16:56:07.456Z,72.07
2019-01-25T16:58:37.161Z,87.20
2019-01-25T17:01:06.731Z,67.10
2019-01-25T17:03:37.087Z,83.27
2019-01-25T17:06:25.716Z,83.17
2019-01-25T17:08:55.346Z,74.70
2019-01-25T17:11:25.374Z,82.07
2019-01-25T17:13:54.904Z,86.97
2019-01-25T17:16:24.502Z,78.60
2019-01-25T17:18:54.210Z,84.20
2019-01-25T17:21:23.750Z,92.00
2019-01-25T17:23:53.382Z,76.83
2019-01-25T17:26:22.907Z,95.43
2019-01-25T17:28:52.641Z,91.87
2019-01-25T17:31:22.279Z,79.07
2019-01-25T17:33:51.870Z,82.90
2019-01-25T17:36:21.401Z,68.33
2019-01-25T17:38:51.053Z,82.07
2019-01-25T17:41:20.517Z,92.37
2019-01-25T17:43:50.231Z,83.30
2019-01-25T17:46:19.744Z,101.73
2019-01-25T17:48:50.072Z,82.93
2019-01-25T17:51:22.456Z,78.10
2019-01-25T17:53:53.716Z,75.77
2019-01-25T17:56:23.804Z,106.77
2019-01-25T17:58:53.544Z,72.10
2019-01-25T18:01:23.548Z,95.50
2019-01-25T18:03:53.878Z,77.53
2019-01-25T18:06:23.734Z,82.53
2019-01-25T18:08:53.768Z,79.97
2019-01-25T18:11:23.763Z,93.43
2019-01-25T18:13:53.755Z,83.23
2019-01-25T18:16:23.883Z,95.97
2019-01-25T18:18:53.546Z,88.50
2019-01-25T18:21:23.333Z,80.53
2019-01-25T18:23:54.444Z,85.03
2019-01-25T18:26:26.162Z,85.93
2019-01-25T18:29:01.824Z,79.20
2019-01-25T18:31:32.590Z,72.40
2019-01-25T18:34:02.320Z,74.30
2019-01-25T18:36:32.134Z,82.43
2019-01-25T18:39:02.196Z,96.83
2019-01-25T18:41:31.951Z,73.40
2019-01-25T18:44:01.892Z,63.37
2019-01-25T18:46:31.976Z,49.27
2019-01-25T18:49:03.980Z,56.00
2019-01-25T18:51:33.465Z,51.57
2019-01-25T18:54:03.064Z,78.70
2019-01-25T18:56:33.022Z,69.13
2019-01-25T18:59:03.567Z,51.83
2019-01-25T19:01:33.300Z,40.70
2019-01-25T19:04:03.112Z,77.57
2019-01-25T19:06:32.903Z,48.47
2019-01-25T19:09:02.785Z,50.90
2019-01-25T19:11:32.437Z,45.83
2019-01-25T19:14:02.224Z,42.90
2019-01-25T19:16:31.728Z,42.80
2019-01-25T19:19:01.511Z,59.67
2019-01-25T19:21:31.079Z,35.20
2019-01-25T19:24:00.705Z,30.13
2019-01-25T19:26:31.592Z,27.80
2019-01-25T19:29:01.624Z,30.23
2019-01-25T19:31:31.252Z,42.90
2019-01-25T19:34:01.170Z,33.33
2019-01-25T19:36:31.056Z,35.93
2019-01-25T19:39:01.254Z,29.60
2019-01-25T19:41:34.720Z,32.47
2019-01-25T19:44:05.062Z,27.57
2019-01-25T19:46:35.353Z,34.87
2019-01-25T19:49:06.320Z,30.30
2019-01-25T19:51:36.445Z,22.50
2019-01-25T19:54:07.868Z,33.20
2019-01-25T19:56:38.506Z,23.30
2019-01-25T19:59:11.631Z,24.20
2019-01-25T20:01:41.694Z,24.10
2019-01-25T20:04:11.894Z,25.00
2019-01-25T20:06:43.655Z,20.33
2019-01-25T20:09:15.099Z,19.00
2019-01-25T20:11:46.806Z,23.37
2019-01-25T20:14:16.794Z,22.40
2019-01-25T20:16:46.901Z,34.80
2019-01-25T20:19:17.132Z,19.10
2019-01-25T20:21:47.904Z,29.03
2019-01-25T20:24:18.390Z,28.57
2019-01-25T20:26:48.135Z,28.00
2019-01-25T20:29:18.159Z,23.10
2019-01-25T20:31:48.026Z,22.20
2019-01-25T20:34:17.712Z,31.77
2019-01-25T20:36:47.935Z,19.37
2019-01-25T20:39:19.621Z,24.80
2019-01-25T20:41:50.527Z,29.17
2019-01-25T20:44:22.524Z,19.23
2019-01-25T20:46:53.540Z,26.13
2019-01-25T20:49:25.110Z,22.40
2019-01-25T20:51:56.829Z,24.83
2019-01-25T20:54:28.910Z,14.17
2019-01-25T20:57:00.001Z,29.10
2019-01-25T20:59:31.754Z,17.30
2019-01-25T21:02:01.756Z,42.17
2019-01-25T21:04:34.733Z,26.50
2019-01-25T21:07:06.757Z,18.60
2019-01-25T21:09:37.721Z,16.00
2019-01-25T21:12:08.793Z,15.33
2019-01-25T21:14:39.828Z,16.03
2019-01-25T21:17:10.807Z,13.97
2019-01-25T21:19:42.287Z,21.53
2019-01-25T21:22:14.001Z,12.10
2019-01-25T21:24:44.745Z,9.03
2019-01-25T21:27:14.601Z,13.47
2019-01-25T21:29:45.231Z,9.60
2019-01-25T21:32:15.110Z,11.70
2019-01-25T21:34:47.314Z,6.73
2019-01-25T21:37:17.050Z,7.13
2019-01-25T21:39:47.005Z,20.63
2019-01-25T21:42:16.704Z,15.30
2019-01-25T21:44:46.447Z,12.20
2019-01-25T21:47:16.155Z,12.67
2019-01-25T21:49:45.777Z,9.47
2019-01-25T21:52:16.040Z,5.23
2019-01-25T21:54:45.900Z,15.60
2019-01-25T21:57:15.762Z,4.97
2019-01-25T21:59:45.309Z,5.93
2019-01-25T22:02:14.934Z,5.67
2019-01-25T22:04:44.644Z,8.77
2019-01-25T22:07:14.374Z,7.63
2019-01-25T22:09:43.891Z,4.53
2019-01-25T22:12:13.482Z,3.70
2019-01-25T22:14:42.962Z,4.63
2019-01-25T22:17:12.582Z,3.20
2019-01-25T22:19:42.365Z,6.90
2019-01-25T22:22:12.152Z,5.27
2019-01-25T22:24:41.910Z,4.30
2019-01-25T22:27:11.482Z,5.90
2019-01-25T22:29:41.079Z,2.97
2019-01-25T22:32:10.637Z,3.00
2019-01-25T22:34:40.361Z,3.87
2019-01-25T22:37:09.958Z,4.20
2019-01-25T22:39:39.630Z,8.10
2019-01-25T22:42:09.493Z,4.27
2019-01-25T22:44:39.092Z,3.17
2019-01-25T22:47:08.768Z,2.10
2019-01-25T22:49:38.345Z,2.80
2019-01-25T22:52:08.174Z,3.00
2019-01-25T22:54:38.429Z,2.07
2019-01-25T22:57:08.303Z,3.37
2019-01-25T22:59:37.961Z,2.40
2019-01-25T23:02:07.858Z,4.23
2019-01-25T23:05:08.677Z,2.07
2019-01-25T23:07:38.388Z,3.90
2019-01-25T23:10:19.291Z,11.90
2019-01-25T23:12:49.145Z,3.43
2019-01-25T23:15:19.281Z,3.13
2019-01-25T23:17:48.890Z,4.43
2019-01-25T23:20:18.721Z,4.30
2019-01-25T23:22:48.446Z,4.50
2019-01-25T23:25:17.894Z,2.40
2019-01-25T23:27:47.375Z,4.00
2019-01-25T23:30:18.102Z,3.80
2019-01-25T23:32:47.761Z,4.20
2019-01-25T23:35:17.126Z,2.63
2019-01-25T23:37:46.476Z,2.70
2019-01-25T23:40:16.830Z,3.27
2019-01-25T23:42:46.341Z,2.67
2019-01-25T23:45:15.889Z,2.20
2019-01-25T23:47:45.331Z,2.17
2019-01-25T23:50:14.912Z,2.20
2019-01-25T23:52:44.408Z,2.83
2019-01-25T23:55:14.045Z,2.33
2019-01-25T23:57:43.743Z,2.13
